sensor_id;sensor_type;location;lat;lon;timestamp;pressure;altitude;pressure_sealevel;temperature;humidity
9899;BME280;4988;49.238;6.698;2023-05-20T00:01:57;99352.25;;;15.42;56.66
9899;BME280;4988;49.238;6.698;2023-05-20T00:04:22;99354.72;;;15.46;56.54
9899;BME280;4988;49.238;6.698;2023-05-20T00:06:48;99348.00;;;15.38;56.47
9899;BME280;4988;49.238;6.698;2023-05-20T00:09:13;99354.81;;;15.44;56.25
9899;BME280;4988;49.238;6.698;2023-05-20T00:11:38;99352.53;;;15.38;56.45
9899;BME280;4988;49.238;6.698;2023-05-20T00:14:04;99356.38;;;15.34;56.65
9899;BME280;4988;49.238;6.698;2023-05-20T00:16:29;99352.13;;;15.30;57.12
9899;BME280;4988;49.238;6.698;2023-05-20T00:18:54;99348.31;;;15.34;56.76
9899;BME280;4988;49.238;6.698;2023-05-20T00:21:21;99341.31;;;15.31;56.38
9899;BME280;4988;49.238;6.698;2023-05-20T00:23:46;99351.00;;;15.34;56.15
9899;BME280;4988;49.238;6.698;2023-05-20T00:26:11;99342.28;;;15.30;56.58
9899;BME280;4988;49.238;6.698;2023-05-20T00:28:37;99338.72;;;15.30;56.83
9899;BME280;4988;49.238;6.698;2023-05-20T00:31:02;99339.00;;;15.25;56.46
9899;BME280;4988;49.238;6.698;2023-05-20T00:33:28;99334.97;;;15.32;56.16
9899;BME280;4988;49.238;6.698;2023-05-20T00:35:54;99338.03;;;15.26;56.73
9899;BME280;4988;49.238;6.698;2023-05-20T00:38:19;99343.03;;;15.18;56.38
9899;BME280;4988;49.238;6.698;2023-05-20T00:40:44;99344.00;;;15.17;56.60
9899;BME280;4988;49.238;6.698;2023-05-20T00:43:10;99334.50;;;15.11;57.31
9899;BME280;4988;49.238;6.698;2023-05-20T00:45:36;99339.59;;;15.16;56.98
9899;BME280;4988;49.238;6.698;2023-05-20T00:48:02;99332.88;;;15.08;57.46
9899;BME280;4988;49.238;6.698;2023-05-20T00:50:28;99333.44;;;15.14;57.27
9899;BME280;4988;49.238;6.698;2023-05-20T00:52:54;99334.59;;;15.09;57.40
9899;BME280;4988;49.238;6.698;2023-05-20T00:55:20;99334.59;;;15.09;57.02
9899;BME280;4988;49.238;6.698;2023-05-20T00:57:47;99330.03;;;15.11;56.93
9899;BME280;4988;49.238;6.698;2023-05-20T01:00:13;99331.03;;;15.09;57.67
9899;BME280;4988;49.238;6.698;2023-05-20T01:02:38;99336.41;;;15.09;57.29
9899;BME280;4988;49.238;6.698;2023-05-20T01:05:04;99331.81;;;15.11;57.74
9899;BME280;4988;49.238;6.698;2023-05-20T01:07:30;99328.84;;;15.01;57.88
9899;BME280;4988;49.238;6.698;2023-05-20T01:09:56;99329.41;;;15.06;57.60
9899;BME280;4988;49.238;6.698;2023-05-20T01:12:25;99328.84;;;15.01;57.59
9899;BME280;4988;49.238;6.698;2023-05-20T01:14:57;99324.25;;;15.03;57.13
9899;BME280;4988;49.238;6.698;2023-05-20T01:17:25;99331.34;;;15.04;57.76
9899;BME280;4988;49.238;6.698;2023-05-20T01:19:56;99325.03;;;15.05;57.71
9899;BME280;4988;49.238;6.698;2023-05-20T01:22:27;99326.94;;;15.03;57.48
9899;BME280;4988;49.238;6.698;2023-05-20T01:24:53;99325.22;;;15.02;57.94
9899;BME280;4988;49.238;6.698;2023-05-20T01:27:20;99323.00;;;14.94;58.47
9899;BME280;4988;49.238;6.698;2023-05-20T01:29:48;99324.44;;;15.00;58.24
9899;BME280;4988;49.238;6.698;2023-05-20T01:32:29;99325.41;;;14.99;58.47
9899;BME280;4988;49.238;6.698;2023-05-20T01:34:56;99328.84;;;15.01;58.86
9899;BME280;4988;49.238;6.698;2023-05-20T01:37:24;99324.38;;;15.02;58.32
9899;BME280;4988;49.238;6.698;2023-05-20T01:39:51;99323.84;;;14.95;58.69
9899;BME280;4988;49.238;6.698;2023-05-20T01:42:18;99312.19;;;14.96;58.78
9899;BME280;4988;49.238;6.698;2023-05-20T01:44:44;99315.91;;;14.93;59.07
9899;BME280;4988;49.238;6.698;2023-05-20T01:47:10;99319.66;;;14.91;58.67
9899;BME280;4988;49.238;6.698;2023-05-20T01:49:35;99310.34;;;14.96;59.13
9899;BME280;4988;49.238;6.698;2023-05-20T01:52:00;99313.91;;;14.97;58.97
9899;BME280;4988;49.238;6.698;2023-05-20T01:54:26;99316.78;;;14.94;59.25
9899;BME280;4988;49.238;6.698;2023-05-20T01:56:51;99314.09;;;14.94;59.11
9899;BME280;4988;49.238;6.698;2023-05-20T01:59:16;99314.28;;;14.91;59.11
9899;BME280;4988;49.238;6.698;2023-05-20T02:01:42;99309.88;;;14.90;59.49
9899;BME280;4988;49.238;6.698;2023-05-20T02:04:07;99309.03;;;14.89;59.90
9899;BME280;4988;49.238;6.698;2023-05-20T02:06:33;99312.75;;;15.01;59.87
9899;BME280;4988;49.238;6.698;2023-05-20T02:08:58;99310.47;;;14.95;59.52
9899;BME280;4988;49.238;6.698;2023-05-20T02:11:23;99314.75;;;14.98;59.53
9899;BME280;4988;49.238;6.698;2023-05-20T02:13:50;99297.81;;;14.97;60.01
9899;BME280;4988;49.238;6.698;2023-05-20T02:16:15;99307.97;;;14.92;60.23
9899;BME280;4988;49.238;6.698;2023-05-20T02:18:40;99303.38;;;14.94;59.62
9899;BME280;4988;49.238;6.698;2023-05-20T02:21:06;99308.16;;;14.89;60.81
9899;BME280;4988;49.238;6.698;2023-05-20T02:23:32;99299.16;;;14.90;61.07
9899;BME280;4988;49.238;6.698;2023-05-20T02:25:57;99304.34;;;14.93;60.63
9899;BME280;4988;49.238;6.698;2023-05-20T02:28:23;99303.47;;;14.92;61.16
9899;BME280;4988;49.238;6.698;2023-05-20T02:30:48;99311.41;;;14.94;61.26
9899;BME280;4988;49.238;6.698;2023-05-20T02:33:17;99314.09;;;14.94;61.34
9899;BME280;4988;49.238;6.698;2023-05-20T02:35:42;99310.06;;;14.87;60.99
9899;BME280;4988;49.238;6.698;2023-05-20T02:38:08;99302.63;;;14.92;60.23
9899;BME280;4988;49.238;6.698;2023-05-20T02:40:33;99303.75;;;14.88;60.68
9899;BME280;4988;49.238;6.698;2023-05-20T02:42:59;99310.94;;;14.87;60.57
9899;BME280;4988;49.238;6.698;2023-05-20T02:45:25;99303.28;;;14.81;60.81
9899;BME280;4988;49.238;6.698;2023-05-20T02:47:51;99303.28;;;14.81;61.21
9899;BME280;4988;49.238;6.698;2023-05-20T02:50:16;99297.81;;;14.83;61.29
9899;BME280;4988;49.238;6.698;2023-05-20T02:52:41;99300.88;;;14.76;61.49
9899;BME280;4988;49.238;6.698;2023-05-20T02:55:07;99305.28;;;14.77;61.66
9899;BME280;4988;49.238;6.698;2023-05-20T02:57:34;99299.91;;;14.77;61.63
9899;BME280;4988;49.238;6.698;2023-05-20T03:00:03;99294.56;;;14.77;61.68
9899;BME280;4988;49.238;6.698;2023-05-20T03:02:29;99298.19;;;14.76;61.54
9899;BME280;4988;49.238;6.698;2023-05-20T03:04:55;99300.69;;;14.79;61.23
9899;BME280;4988;49.238;6.698;2023-05-20T03:07:20;99296.38;;;14.77;62.11
9899;BME280;4988;49.238;6.698;2023-05-20T03:09:46;99288.34;;;14.77;62.07
9899;BME280;4988;49.238;6.698;2023-05-20T03:12:11;99298.56;;;14.70;62.31
9899;BME280;4988;49.238;6.698;2023-05-20T03:14:37;99295.97;;;14.69;61.92
9899;BME280;4988;49.238;6.698;2023-05-20T03:17:02;99291.56;;;14.68;62.38
9899;BME280;4988;49.238;6.698;2023-05-20T03:19:27;99306.59;;;14.70;62.48
9899;BME280;4988;49.238;6.698;2023-05-20T03:21:52;99299.91;;;14.77;62.46
9899;BME280;4988;49.238;6.698;2023-05-20T03:24:18;99297.72;;;14.70;62.61
9899;BME280;4988;49.238;6.698;2023-05-20T03:26:43;99303.81;;;14.72;62.79
9899;BME280;4988;49.238;6.698;2023-05-20T03:29:10;99295.09;;;14.68;62.55
9899;BME280;4988;49.238;6.698;2023-05-20T03:31:35;99291.81;;;14.63;62.94
9899;BME280;4988;49.238;6.698;2023-05-20T03:34:01;99294.88;;;14.57;63.34
9899;BME280;4988;49.238;6.698;2023-05-20T03:36:26;99300.31;;;14.55;63.40
9899;BME280;4988;49.238;6.698;2023-05-20T03:38:52;99294.19;;;14.53;63.47
9899;BME280;4988;49.238;6.698;2023-05-20T03:41:17;99298.09;;;14.47;64.10
9899;BME280;4988;49.238;6.698;2023-05-20T03:43:43;99296.53;;;14.43;64.07
9899;BME280;4988;49.238;6.698;2023-05-20T03:46:08;99298.47;;;14.41;64.62
9899;BME280;4988;49.238;6.698;2023-05-20T03:48:34;99300.28;;;14.41;64.70
9899;BME280;4988;49.238;6.698;2023-05-20T03:50:59;99304.09;;;14.37;65.09
9899;BME280;4988;49.238;6.698;2023-05-20T03:53:26;99306.69;;;14.38;64.79
9899;BME280;4988;49.238;6.698;2023-05-20T03:55:51;99305.91;;;14.36;64.92
9899;BME280;4988;49.238;6.698;2023-05-20T03:58:16;99299.94;;;14.31;64.96
9899;BME280;4988;49.238;6.698;2023-05-20T04:00:42;99302.81;;;14.28;65.25
9899;BME280;4988;49.238;6.698;2023-05-20T04:03:07;99307.50;;;14.24;65.40
9899;BME280;4988;49.238;6.698;2023-05-20T04:05:33;99300.22;;;14.26;65.56
9899;BME280;4988;49.238;6.698;2023-05-20T04:08:00;99297.75;;;14.23;65.64
9899;BME280;4988;49.238;6.698;2023-05-20T04:10:25;99296.47;;;14.14;66.11
9899;BME280;4988;49.238;6.698;2023-05-20T04:12:50;99304.66;;;14.11;66.03
9899;BME280;4988;49.238;6.698;2023-05-20T04:15:17;99297.09;;;14.04;66.81
9899;BME280;4988;49.238;6.698;2023-05-20T04:17:43;99297.56;;;14.10;66.90
9899;BME280;4988;49.238;6.698;2023-05-20T04:20:12;99304.59;;;14.13;67.25
9899;BME280;4988;49.238;6.698;2023-05-20T04:22:38;99303.28;;;14.04;66.90
9899;BME280;4988;49.238;6.698;2023-05-20T04:25:04;99293.56;;;14.03;67.01
9899;BME280;4988;49.238;6.698;2023-05-20T04:27:30;99292.16;;;14.12;68.17
9899;BME280;4988;49.238;6.698;2023-05-20T04:29:57;99294.91;;;14.10;67.53
9899;BME280;4988;49.238;6.698;2023-05-20T04:32:22;99295.41;;;14.17;67.24
9899;BME280;4988;49.238;6.698;2023-05-20T04:34:48;99285.75;;;14.14;67.91
9899;BME280;4988;49.238;6.698;2023-05-20T04:37:14;99296.09;;;14.21;67.60
9899;BME280;4988;49.238;6.698;2023-05-20T04:39:40;99298.00;;;14.19;67.77
9899;BME280;4988;49.238;6.698;2023-05-20T04:42:07;99306.13;;;14.17;68.08
9899;BME280;4988;49.238;6.698;2023-05-20T04:44:33;99292.91;;;14.14;68.35
9899;BME280;4988;49.238;6.698;2023-05-20T04:46:58;99293.94;;;14.11;68.03
9899;BME280;4988;49.238;6.698;2023-05-20T04:49:24;99295.69;;;14.12;68.08
9899;BME280;4988;49.238;6.698;2023-05-20T04:51:55;99287.22;;;14.04;68.68
9899;BME280;4988;49.238;6.698;2023-05-20T04:54:20;99297.00;;;14.05;68.93
9899;BME280;4988;49.238;6.698;2023-05-20T04:56:46;99283.59;;;14.05;69.43
9899;BME280;4988;49.238;6.698;2023-05-20T04:59:11;99287.66;;;14.12;69.59
9899;BME280;4988;49.238;6.698;2023-05-20T05:01:37;99292.66;;;14.19;68.58
9899;BME280;4988;49.238;6.698;2023-05-20T05:04:02;99293.94;;;14.11;69.20
9899;BME280;4988;49.238;6.698;2023-05-20T05:06:28;99289.38;;;14.13;69.28
9899;BME280;4988;49.238;6.698;2023-05-20T05:08:53;99284.38;;;14.07;69.30
9899;BME280;4988;49.238;6.698;2023-05-20T05:11:18;99285.34;;;14.06;69.69
9899;BME280;4988;49.238;6.698;2023-05-20T05:13:44;99285.66;;;14.16;69.41
9899;BME280;4988;49.238;6.698;2023-05-20T05:16:09;99282.28;;;14.12;69.45
9899;BME280;4988;49.238;6.698;2023-05-20T05:18:35;99281.34;;;14.13;70.23
9899;BME280;4988;49.238;6.698;2023-05-20T05:21:05;99276.59;;;14.19;69.86
9899;BME280;4988;49.238;6.698;2023-05-20T05:23:31;99280.03;;;14.21;69.66
9899;BME280;4988;49.238;6.698;2023-05-20T05:25:57;99279.69;;;14.27;69.26
9899;BME280;4988;49.238;6.698;2023-05-20T05:28:23;99282.13;;;14.15;69.96
9899;BME280;4988;49.238;6.698;2023-05-20T05:30:49;99282.88;;;14.18;69.82
9899;BME280;4988;49.238;6.698;2023-05-20T05:33:14;99268.91;;;14.12;69.94
9899;BME280;4988;49.238;6.698;2023-05-20T05:35:40;99273.91;;;14.19;69.73
9899;BME280;4988;49.238;6.698;2023-05-20T05:38:07;99266.81;;;14.18;69.77
9899;BME280;4988;49.238;6.698;2023-05-20T05:40:32;99270.28;;;14.20;69.75
9899;BME280;4988;49.238;6.698;2023-05-20T05:42:57;99266.66;;;14.21;70.20
9899;BME280;4988;49.238;6.698;2023-05-20T05:45:22;99277.00;;;14.27;69.87
9899;BME280;4988;49.238;6.698;2023-05-20T05:47:48;99272.81;;;14.37;69.07
9899;BME280;4988;49.238;6.698;2023-05-20T05:50:13;99275.44;;;14.53;69.37
9899;BME280;4988;49.238;6.698;2023-05-20T05:52:38;99276.63;;;14.63;68.62
9899;BME280;4988;49.238;6.698;2023-05-20T05:55:04;99268.53;;;14.79;68.03
9899;BME280;4988;49.238;6.698;2023-05-20T05:57:29;99266.72;;;14.94;67.86
9899;BME280;4988;49.238;6.698;2023-05-20T05:59:55;99269.31;;;15.10;66.57
9899;BME280;4988;49.238;6.698;2023-05-20T06:02:21;99271.22;;;15.23;66.91
9899;BME280;4988;49.238;6.698;2023-05-20T06:04:46;99265.06;;;15.35;66.43
9899;BME280;4988;49.238;6.698;2023-05-20T06:07:12;99266.00;;;15.49;65.30
9899;BME280;4988;49.238;6.698;2023-05-20T06:09:37;99264.66;;;15.56;65.06
9899;BME280;4988;49.238;6.698;2023-05-20T06:12:03;99253.91;;;15.56;64.80
9899;BME280;4988;49.238;6.698;2023-05-20T06:14:29;99267.13;;;15.59;64.42
9899;BME280;4988;49.238;6.698;2023-05-20T06:16:54;99257.00;;;15.50;64.97
9899;BME280;4988;49.238;6.698;2023-05-20T06:19:19;99259.28;;;15.56;64.84
9899;BME280;4988;49.238;6.698;2023-05-20T06:21:45;99263.84;;;15.68;64.70
9899;BME280;4988;49.238;6.698;2023-05-20T06:24:10;99261.31;;;15.80;64.57
9899;BME280;4988;49.238;6.698;2023-05-20T06:26:35;99260.72;;;15.89;63.57
9899;BME280;4988;49.238;6.698;2023-05-20T06:29:02;99248.97;;;16.04;63.12
9899;BME280;4988;49.238;6.698;2023-05-20T06:31:27;99244.56;;;16.03;63.53
9899;BME280;4988;49.238;6.698;2023-05-20T06:33:54;99251.84;;;16.01;63.17
9899;BME280;4988;49.238;6.698;2023-05-20T06:36:19;99252.41;;;16.06;63.09
9899;BME280;4988;49.238;6.698;2023-05-20T06:38:45;99244.50;;;16.18;63.54
9899;BME280;4988;49.238;6.698;2023-05-20T06:41:10;99235.47;;;16.19;62.97
9899;BME280;4988;49.238;6.698;2023-05-20T06:43:36;99232.69;;;16.20;63.12
9899;BME280;4988;49.238;6.698;2023-05-20T06:46:01;99241.59;;;16.21;63.08
9899;BME280;4988;49.238;6.698;2023-05-20T06:48:26;99235.72;;;16.29;62.75
9899;BME280;4988;49.238;6.698;2023-05-20T06:50:52;99232.91;;;16.30;62.37
9899;BME280;4988;49.238;6.698;2023-05-20T06:53:17;99226.34;;;16.34;62.40
9899;BME280;4988;49.238;6.698;2023-05-20T06:55:42;99228.84;;;16.50;63.79
9899;BME280;4988;49.238;6.698;2023-05-20T06:58:08;99221.00;;;16.60;62.10
9899;BME280;4988;49.238;6.698;2023-05-20T07:00:33;99219.50;;;16.56;62.17
9899;BME280;4988;49.238;6.698;2023-05-20T07:02:58;99221.44;;;16.41;62.58
9899;BME280;4988;49.238;6.698;2023-05-20T07:05:24;99220.34;;;16.44;62.82
9899;BME280;4988;49.238;6.698;2023-05-20T07:07:49;99215.53;;;16.49;63.09
9899;BME280;4988;49.238;6.698;2023-05-20T07:10:15;99213.16;;;16.57;62.17
9899;BME280;4988;49.238;6.698;2023-05-20T07:12:40;99206.81;;;16.58;62.50
9899;BME280;4988;49.238;6.698;2023-05-20T07:15:07;99201.09;;;16.63;62.67
9899;BME280;4988;49.238;6.698;2023-05-20T07:17:32;99198.75;;;16.58;62.13
9899;BME280;4988;49.238;6.698;2023-05-20T07:19:57;99212.06;;;16.47;63.98
9899;BME280;4988;49.238;6.698;2023-05-20T07:22:23;99209.94;;;16.52;63.51
9899;BME280;4988;49.238;6.698;2023-05-20T07:24:48;99209.19;;;16.50;64.02
9899;BME280;4988;49.238;6.698;2023-05-20T07:27:13;99220.13;;;16.47;63.95
9899;BME280;4988;49.238;6.698;2023-05-20T07:29:39;99217.25;;;16.50;64.15
9899;BME280;4988;49.238;6.698;2023-05-20T07:32:04;99210.16;;;16.49;63.94
9899;BME280;4988;49.238;6.698;2023-05-20T07:34:30;99209.19;;;16.50;65.09
9899;BME280;4988;49.238;6.698;2023-05-20T07:36:56;99209.72;;;16.55;64.38
9899;BME280;4988;49.238;6.698;2023-05-20T07:39:22;99208.09;;;16.52;64.94
9899;BME280;4988;49.238;6.698;2023-05-20T07:41:48;99209.28;;;16.61;64.99
9899;BME280;4988;49.238;6.698;2023-05-20T07:44:13;99203.72;;;16.64;64.76
9899;BME280;4988;49.238;6.698;2023-05-20T07:46:39;99208.41;;;16.73;65.15
9899;BME280;4988;49.238;6.698;2023-05-20T07:49:06;99209.72;;;16.81;64.33
9899;BME280;4988;49.238;6.698;2023-05-20T07:51:31;99203.69;;;16.90;64.71
9899;BME280;4988;49.238;6.698;2023-05-20T07:53:57;99198.97;;;16.94;65.28
9899;BME280;4988;49.238;6.698;2023-05-20T07:56:23;99198.44;;;17.01;65.54
9899;BME280;4988;49.238;6.698;2023-05-20T07:58:52;99187.34;;;17.06;65.25
9899;BME280;4988;49.238;6.698;2023-05-20T08:01:18;99184.72;;;17.17;65.38
9899;BME280;4988;49.238;6.698;2023-05-20T08:03:44;99196.97;;;17.22;65.48
9899;BME280;4988;49.238;6.698;2023-05-20T08:06:09;99193.72;;;17.29;65.58
9899;BME280;4988;49.238;6.698;2023-05-20T08:08:35;99186.69;;;17.40;65.42
9899;BME280;4988;49.238;6.698;2023-05-20T08:11:00;99191.75;;;17.44;64.96
9899;BME280;4988;49.238;6.698;2023-05-20T08:13:26;99183.72;;;17.56;64.84
9899;BME280;4988;49.238;6.698;2023-05-20T08:15:52;99189.28;;;17.65;64.26
9899;BME280;4988;49.238;6.698;2023-05-20T08:18:18;99177.72;;;17.76;64.50
9899;BME280;4988;49.238;6.698;2023-05-20T08:20:44;99178.22;;;17.81;63.40
9899;BME280;4988;49.238;6.698;2023-05-20T08:23:09;99182.09;;;17.77;64.01
9899;BME280;4988;49.238;6.698;2023-05-20T08:25:34;99173.41;;;17.74;63.39
9899;BME280;4988;49.238;6.698;2023-05-20T08:28:01;99175.28;;;17.84;63.54
9899;BME280;4988;49.238;6.698;2023-05-20T08:30:28;99172.25;;;18.13;63.24
9899;BME280;4988;49.238;6.698;2023-05-20T08:32:54;99183.53;;;18.19;62.86
9899;BME280;4988;49.238;6.698;2023-05-20T08:35:20;99174.56;;;18.18;62.37
9899;BME280;4988;49.238;6.698;2023-05-20T08:37:45;99180.69;;;18.20;62.26
9899;BME280;4988;49.238;6.698;2023-05-20T08:40:11;99174.81;;;18.15;62.02
9899;BME280;4988;49.238;6.698;2023-05-20T08:42:43;99178.66;;;17.99;62.37
9899;BME280;4988;49.238;6.698;2023-05-20T08:45:11;99174.69;;;17.92;62.55
9899;BME280;4988;49.238;6.698;2023-05-20T08:47:40;99177.84;;;17.86;62.69
9899;BME280;4988;49.238;6.698;2023-05-20T08:50:12;99173.94;;;17.79;63.70
9899;BME280;4988;49.238;6.698;2023-05-20T08:52:43;99166.56;;;17.81;63.85
9899;BME280;4988;49.238;6.698;2023-05-20T08:55:13;99167.50;;;17.93;64.51
9899;BME280;4988;49.238;6.698;2023-05-20T08:57:39;99169.63;;;18.00;63.39
9899;BME280;4988;49.238;6.698;2023-05-20T09:00:07;99175.50;;;18.06;63.88
9899;BME280;4988;49.238;6.698;2023-05-20T09:02:38;99162.31;;;18.14;63.62
9899;BME280;4988;49.238;6.698;2023-05-20T09:05:04;99160.88;;;18.32;62.92
9899;BME280;4988;49.238;6.698;2023-05-20T09:07:30;99165.66;;;18.40;61.71
9899;BME280;4988;49.238;6.698;2023-05-20T09:09:56;99167.78;;;18.37;62.50
9899;BME280;4988;49.238;6.698;2023-05-20T09:12:21;99168.34;;;18.40;62.11
9899;BME280;4988;49.238;6.698;2023-05-20T09:14:48;99161.03;;;18.42;62.05
9899;BME280;4988;49.238;6.698;2023-05-20T09:17:13;99156.13;;;18.47;62.43
9899;BME280;4988;49.238;6.698;2023-05-20T09:19:39;99151.13;;;18.54;62.21
9899;BME280;4988;49.238;6.698;2023-05-20T09:22:04;99146.97;;;18.61;61.57
9899;BME280;4988;49.238;6.698;2023-05-20T09:24:31;99152.84;;;18.67;61.64
9899;BME280;4988;49.238;6.698;2023-05-20T09:26:57;99158.22;;;18.78;61.09
9899;BME280;4988;49.238;6.698;2023-05-20T09:29:23;99142.03;;;18.89;61.26
9899;BME280;4988;49.238;6.698;2023-05-20T09:31:49;99146.19;;;19.16;61.31
9899;BME280;4988;49.238;6.698;2023-05-20T09:34:15;99136.72;;;19.33;61.01
9899;BME280;4988;49.238;6.698;2023-05-20T09:36:42;99139.13;;;19.48;59.40
9899;BME280;4988;49.238;6.698;2023-05-20T09:39:12;99134.28;;;19.63;59.44
9899;BME280;4988;49.238;6.698;2023-05-20T09:41:56;99134.91;;;19.66;60.54
9899;BME280;4988;49.238;6.698;2023-05-20T09:44:27;99126.38;;;19.71;58.49
9899;BME280;4988;49.238;6.698;2023-05-20T09:46:53;99126.28;;;19.61;58.60
9899;BME280;4988;49.238;6.698;2023-05-20T09:49:21;99135.00;;;19.65;59.25
9899;BME280;4988;49.238;6.698;2023-05-20T09:51:47;99133.72;;;19.80;59.85
9899;BME280;4988;49.238;6.698;2023-05-20T09:54:14;99124.91;;;19.99;58.72
9899;BME280;4988;49.238;6.698;2023-05-20T09:56:42;99117.69;;;20.21;58.58
9899;BME280;4988;49.238;6.698;2023-05-20T09:59:09;99117.34;;;20.35;57.73
9899;BME280;4988;49.238;6.698;2023-05-20T10:01:35;99117.25;;;20.47;57.72
9899;BME280;4988;49.238;6.698;2023-05-20T10:04:03;99125.22;;;20.48;58.01
9899;BME280;4988;49.238;6.698;2023-05-20T10:09:23;99122.44;;;20.60;57.17
9899;BME280;4988;49.238;6.698;2023-05-20T10:12:08;99132.88;;;20.43;56.60
9899;BME280;4988;49.238;6.698;2023-05-20T10:14:40;99124.03;;;20.62;56.34
9899;BME280;4988;49.238;6.698;2023-05-20T10:20:15;99119.75;;;20.60;56.67
9899;BME280;4988;49.238;6.698;2023-05-20T10:22:40;99119.44;;;20.32;56.76
9899;BME280;4988;49.238;6.698;2023-05-20T10:25:11;99110.53;;;20.20;57.70
9899;BME280;4988;49.238;6.698;2023-05-20T10:27:46;99119.13;;;20.04;57.43
9899;BME280;4988;49.238;6.698;2023-05-20T10:30:20;99108.22;;;20.05;58.33
9899;BME280;4988;49.238;6.698;2023-05-20T10:32:54;99104.00;;;20.22;58.33
9899;BME280;4988;49.238;6.698;2023-05-20T10:35:23;99094.97;;;20.33;56.97
9899;BME280;4988;49.238;6.698;2023-05-20T10:37:50;99098.34;;;20.25;57.42
9899;BME280;4988;49.238;6.698;2023-05-20T10:40:18;99097.63;;;20.23;57.98
9899;BME280;4988;49.238;6.698;2023-05-20T10:42:43;99104.34;;;20.29;58.55
9899;BME280;4988;49.238;6.698;2023-05-20T10:45:09;99100.25;;;20.35;58.36
9899;BME280;4988;49.238;6.698;2023-05-20T10:47:35;99102.94;;;20.35;56.37
9899;BME280;4988;49.238;6.698;2023-05-20T10:50:01;99094.97;;;20.33;57.11
9899;BME280;4988;49.238;6.698;2023-05-20T10:52:32;99097.28;;;20.38;57.43
9899;BME280;4988;49.238;6.698;2023-05-20T10:54:59;99100.19;;;20.46;57.82
9899;BME280;4988;49.238;6.698;2023-05-20T10:57:26;99105.75;;;20.54;57.73
9899;BME280;4988;49.238;6.698;2023-05-20T10:59:52;99100.38;;;20.64;57.94
9899;BME280;4988;49.238;6.698;2023-05-20T11:02:18;99096.53;;;20.67;57.46
9899;BME280;4988;49.238;6.698;2023-05-20T11:04:47;99093.34;;;20.52;56.96
9899;BME280;4988;49.238;6.698;2023-05-20T11:07:23;99090.56;;;20.32;57.38
9899;BME280;4988;49.238;6.698;2023-05-20T11:09:53;99082.00;;;20.27;57.75
9899;BME280;4988;49.238;6.698;2023-05-20T11:12:20;99091.16;;;20.36;58.34
9899;BME280;4988;49.238;6.698;2023-05-20T11:14:47;99074.41;;;20.52;57.37
9899;BME280;4988;49.238;6.698;2023-05-20T11:17:13;99081.75;;;20.71;57.33
9899;BME280;4988;49.238;6.698;2023-05-20T11:19:38;99080.97;;;20.90;56.32
9899;BME280;4988;49.238;6.698;2023-05-20T11:22:06;99077.59;;;20.98;57.21
9899;BME280;4988;49.238;6.698;2023-05-20T11:24:32;99069.06;;;21.12;55.50
9899;BME280;4988;49.238;6.698;2023-05-20T11:26:59;99062.78;;;21.02;55.08
9899;BME280;4988;49.238;6.698;2023-05-20T11:29:25;99067.44;;;20.80;55.10
9899;BME280;4988;49.238;6.698;2023-05-20T11:31:50;99069.06;;;20.62;55.61
9899;BME280;4988;49.238;6.698;2023-05-20T11:34:20;99056.63;;;20.49;56.24
9899;BME280;4988;49.238;6.698;2023-05-20T11:36:47;99057.56;;;20.38;56.75
9899;BME280;4988;49.238;6.698;2023-05-20T11:39:14;99049.78;;;20.45;56.61
9899;BME280;4988;49.238;6.698;2023-05-20T11:41:43;99050.25;;;20.60;57.16
9899;BME280;4988;49.238;6.698;2023-05-20T11:44:09;99048.69;;;20.98;59.12
9899;BME280;4988;49.238;6.698;2023-05-20T11:46:44;99043.88;;;21.21;56.70
9899;BME280;4988;49.238;6.698;2023-05-20T11:49:11;99033.47;;;21.27;55.86
9899;BME280;4988;49.238;6.698;2023-05-20T11:51:37;99037.00;;;21.37;55.43
9899;BME280;4988;49.238;6.698;2023-05-20T11:54:05;99030.59;;;21.38;54.72
9899;BME280;4988;49.238;6.698;2023-05-20T11:56:36;99041.44;;;21.38;53.93
9899;BME280;4988;49.238;6.698;2023-05-20T11:59:03;99035.19;;;21.37;54.56
9899;BME280;4988;49.238;6.698;2023-05-20T12:01:30;99030.75;;;21.46;54.30
9899;BME280;4988;49.238;6.698;2023-05-20T12:03:57;99035.19;;;21.57;54.45
9899;BME280;4988;49.238;6.698;2023-05-20T12:06:23;99009.09;;;21.66;53.63
9899;BME280;4988;49.238;6.698;2023-05-20T12:08:48;99007.78;;;21.70;53.16
9899;BME280;4988;49.238;6.698;2023-05-20T12:11:13;99010.19;;;21.83;54.83
9899;BME280;4988;49.238;6.698;2023-05-20T12:13:39;99007.78;;;21.80;52.84
9899;BME280;4988;49.238;6.698;2023-05-20T12:16:05;99006.66;;;21.63;53.71
9899;BME280;4988;49.238;6.698;2023-05-20T12:18:31;99005.97;;;21.61;53.43
9899;BME280;4988;49.238;6.698;2023-05-20T12:20:57;99002.69;;;21.67;52.93
9899;BME280;4988;49.238;6.698;2023-05-20T12:23:22;99014.66;;;21.74;53.07
9899;BME280;4988;49.238;6.698;2023-05-20T12:25:48;99001.91;;;21.84;51.75
9899;BME280;4988;49.238;6.698;2023-05-20T12:28:14;99004.72;;;22.03;52.60
9899;BME280;4988;49.238;6.698;2023-05-20T12:30:40;99000.19;;;22.31;52.41
9899;BME280;4988;49.238;6.698;2023-05-20T12:33:05;98996.38;;;22.52;51.93
9899;BME280;4988;49.238;6.698;2023-05-20T12:35:39;98985.97;;;22.75;52.65
9899;BME280;4988;49.238;6.698;2023-05-20T12:38:05;99000.81;;;22.80;51.57
9899;BME280;4988;49.238;6.698;2023-05-20T12:40:31;98988.47;;;22.68;51.02
9899;BME280;4988;49.238;6.698;2023-05-20T12:42:57;98998.72;;;22.46;50.50
9899;BME280;4988;49.238;6.698;2023-05-20T12:45:23;98991.34;;;22.29;51.28
9899;BME280;4988;49.238;6.698;2023-05-20T12:47:48;98996.44;;;22.42;51.13
9899;BME280;4988;49.238;6.698;2023-05-20T12:50:13;98994.88;;;22.39;50.41
9899;BME280;4988;49.238;6.698;2023-05-20T12:52:39;99004.03;;;22.38;50.13
9899;BME280;4988;49.238;6.698;2023-05-20T12:55:04;98997.78;;;22.28;50.62
9899;BME280;4988;49.238;6.698;2023-05-20T12:57:40;98988.63;;;22.29;50.62
9899;BME280;4988;49.238;6.698;2023-05-20T13:00:08;98992.75;;;22.33;51.68
9899;BME280;4988;49.238;6.698;2023-05-20T13:02:34;98994.63;;;22.32;50.53
9899;BME280;4988;49.238;6.698;2023-05-20T13:05:00;99001.00;;;22.04;50.13
9899;BME280;4988;49.238;6.698;2023-05-20T13:07:25;99002.91;;;21.83;51.61
9899;BME280;4988;49.238;6.698;2023-05-20T13:09:51;98997.22;;;21.87;51.42
9899;BME280;4988;49.238;6.698;2023-05-20T13:12:16;98994.69;;;22.13;52.60
9899;BME280;4988;49.238;6.698;2023-05-20T13:14:42;98991.69;;;22.06;50.74
9899;BME280;4988;49.238;6.698;2023-05-20T13:17:07;98986.72;;;22.11;51.88
9899;BME280;4988;49.238;6.698;2023-05-20T13:19:33;98981.09;;;22.23;51.07
9899;BME280;4988;49.238;6.698;2023-05-20T13:21:58;98993.59;;;22.43;51.83
9899;BME280;4988;49.238;6.698;2023-05-20T13:24:23;98988.19;;;22.43;50.02